Terminal Aerodrome Forecast
Issued by NWS

Home | Current Version | Previous Version | Text Only | Print | Product List | Glossary On
Versions: 1 2 3 4 5 6 7 8 9 10 11 12 13 14 15 16 17 18 19 20 21
000
FTUS43 KIND 202300
TAFBMG
TAF
KBMG 202320Z 2100/2124 22008KT P6SM FEW040 SCT080 BKN250
      TEMPO 2102/2104 3SM TSRA BKN025 OVC040CB
     FM210400 22010KT P6SM VCTS SCT040 BKN060CB
     FM211000 23008KT P6SM SCT012 BKN080
     FM211400 24009KT P6SM SCT012
     FM211600 28012G18KT P6SM SCT035
     FM212300 34010KT P6SM BKN025
      AMD LTD TO CLD VIS AND WIND 2101/2113=

USA.gov is the U.S. government's official web portal to all federal, state and local government web resources and services.